createdAt,value
2022-12-03T00:00:12.120Z,91.60
2022-12-03T00:02:40.922Z,91.80
2022-12-03T00:05:09.158Z,91.60
2022-12-03T00:07:36.909Z,91.70
2022-12-03T00:10:06.816Z,91.60
2022-12-03T00:12:34.359Z,91.40
2022-12-03T00:15:02.018Z,91.60
2022-12-03T00:17:29.730Z,91.50
2022-12-03T00:19:57.307Z,91.30
2022-12-03T00:22:25.190Z,91.50
2022-12-03T00:24:52.975Z,91.60
2022-12-03T00:27:22.231Z,91.50
2022-12-03T00:29:49.796Z,91.60
2022-12-03T00:32:17.334Z,91.50
2022-12-03T00:34:44.912Z,91.60
2022-12-03T00:37:12.465Z,91.50
2022-12-03T00:39:40.025Z,91.40
2022-12-03T00:42:07.664Z,91.50
2022-12-03T00:44:36.831Z,91.50
2022-12-03T00:47:04.560Z,91.70
2022-12-03T00:49:32.332Z,91.50
2022-12-03T00:51:59.907Z,91.50
2022-12-03T00:54:31.885Z,91.60
2022-12-03T00:56:59.919Z,91.60
2022-12-03T00:59:27.562Z,91.60
2022-12-03T01:01:56.843Z,91.50
2022-12-03T01:04:24.549Z,91.60
2022-12-03T01:06:52.140Z,91.80
2022-12-03T01:09:19.751Z,91.70
2022-12-03T01:11:47.310Z,91.80
2022-12-03T01:14:15.997Z,92.00
2022-12-03T01:16:43.974Z,92.00
2022-12-03T01:19:15.676Z,91.90
2022-12-03T01:21:43.369Z,91.60
2022-12-03T01:24:11.213Z,91.30
2022-12-03T01:26:38.806Z,91.40
2022-12-03T01:29:06.799Z,91.50
2022-12-03T01:31:51.857Z,91.40
2022-12-03T01:34:20.723Z,91.50
2022-12-03T01:36:48.323Z,91.60
2022-12-03T01:39:15.994Z,91.50
2022-12-03T01:41:43.592Z,91.20
2022-12-03T01:44:15.530Z,91.30
2022-12-03T01:46:43.487Z,91.40
2022-12-03T01:49:14.814Z,91.40
2022-12-03T01:51:43.768Z,91.50
2022-12-03T01:54:15.417Z,91.50
2022-12-03T01:56:43.083Z,91.50
2022-12-03T01:59:14.040Z,91.40
2022-12-03T02:01:41.672Z,91.40
2022-12-03T02:04:11.502Z,91.10
2022-12-03T02:06:39.059Z,91.30
2022-12-03T02:09:08.620Z,91.30
2022-12-03T02:11:37.763Z,91.00
2022-12-03T02:17:16.699Z,91.00
2022-12-03T02:19:44.462Z,90.90
2022-12-03T02:22:17.871Z,90.70
2022-12-03T02:24:50.167Z,90.80
2022-12-03T02:27:19.408Z,90.80
2022-12-03T02:29:47.148Z,91.00
2022-12-03T02:32:14.919Z,90.60
2022-12-03T02:34:43.637Z,90.30
2022-12-03T02:37:13.297Z,90.90
2022-12-03T02:39:43.933Z,90.80
2022-12-03T02:42:29.522Z,91.00
2022-12-03T02:45:05.188Z,91.00
2022-12-03T02:47:34.082Z,90.70
2022-12-03T02:50:02.197Z,91.10
2022-12-03T02:52:30.000Z,91.00
2022-12-03T02:54:57.722Z,90.50
2022-12-03T02:57:25.549Z,90.70
2022-12-03T02:59:53.264Z,90.90
2022-12-03T03:02:22.449Z,91.00
2022-12-03T03:04:50.558Z,91.30
2022-12-03T03:07:28.994Z,91.30
2022-12-03T03:09:56.818Z,90.90
2022-12-03T03:12:27.918Z,90.90
2022-12-03T03:14:55.892Z,91.00
2022-12-03T03:17:25.618Z,90.40
2022-12-03T03:19:53.357Z,90.80
2022-12-03T03:22:21.148Z,90.70
2022-12-03T03:24:49.153Z,90.60
2022-12-03T03:27:16.926Z,90.60
2022-12-03T03:29:44.578Z,90.70
2022-12-03T03:32:12.408Z,90.90
2022-12-03T03:34:41.591Z,90.90
2022-12-03T03:37:09.464Z,91.20
2022-12-03T03:39:37.263Z,90.80
2022-12-03T03:42:05.206Z,90.70
2022-12-03T03:44:33.861Z,90.80
2022-12-03T03:47:01.584Z,91.20
2022-12-03T03:49:29.717Z,90.70
2022-12-03T03:51:59.296Z,91.20
2022-12-03T03:54:27.257Z,91.00
2022-12-03T03:56:54.952Z,91.10
2022-12-03T03:59:22.688Z,91.00
2022-12-03T04:01:50.484Z,90.90
2022-12-03T04:04:19.603Z,91.00
2022-12-03T04:06:47.366Z,91.20
2022-12-03T04:09:16.399Z,90.90
2022-12-03T04:12:01.980Z,91.10
2022-12-03T04:14:29.701Z,91.20
2022-12-03T04:16:57.435Z,90.90
2022-12-03T04:19:25.229Z,91.10
2022-12-03T04:22:10.313Z,91.00
2022-12-03T04:24:39.359Z,91.10
2022-12-03T04:27:24.520Z,91.20
2022-12-03T04:29:52.168Z,91.20
2022-12-03T04:32:37.374Z,90.90
2022-12-03T04:35:22.897Z,90.90
2022-12-03T04:37:50.545Z,91.10
2022-12-03T04:40:37.330Z,91.00
2022-12-03T04:43:04.985Z,91.30
2022-12-03T04:45:32.628Z,91.30
2022-12-03T04:48:00.435Z,91.00
2022-12-03T04:50:28.117Z,90.90
2022-12-03T04:52:55.682Z,90.80
2022-12-03T04:55:24.808Z,90.80
2022-12-03T04:57:52.413Z,90.90
2022-12-03T05:00:20.274Z,90.80
2022-12-03T05:02:48.059Z,90.80
2022-12-03T05:05:15.829Z,90.80
2022-12-03T05:07:43.843Z,90.60
2022-12-03T05:10:11.942Z,90.70
2022-12-03T05:12:40.967Z,90.80
2022-12-03T05:15:08.808Z,90.70
2022-12-03T05:17:36.512Z,90.50
2022-12-03T05:20:22.267Z,90.50
2022-12-03T05:22:49.890Z,90.80
2022-12-03T05:25:17.512Z,90.50
2022-12-03T05:27:46.537Z,90.60
2022-12-03T05:30:16.459Z,90.80
2022-12-03T05:32:44.166Z,90.80
2022-12-03T05:35:12.011Z,90.40
2022-12-03T05:37:39.618Z,90.70
2022-12-03T05:40:08.013Z,90.40
2022-12-03T05:42:53.331Z,90.60
2022-12-03T05:45:22.719Z,90.50
2022-12-03T05:47:50.362Z,90.90
2022-12-03T05:50:18.358Z,90.40
2022-12-03T05:52:46.147Z,90.60
2022-12-03T05:55:13.956Z,90.40
2022-12-03T05:57:41.992Z,90.60
2022-12-03T06:00:14.347Z,90.30
2022-12-03T06:02:43.643Z,90.70
2022-12-03T06:05:12.623Z,90.80
2022-12-03T06:07:40.498Z,90.60
2022-12-03T06:10:09.800Z,90.30
2022-12-03T06:12:37.575Z,90.70
2022-12-03T06:15:06.972Z,90.20
2022-12-03T06:17:34.667Z,90.50
2022-12-03T06:20:03.997Z,90.20
2022-12-03T06:22:31.619Z,90.80
2022-12-03T06:25:04.902Z,90.30
2022-12-03T06:27:34.373Z,90.70
2022-12-03T06:30:02.009Z,90.60
2022-12-03T06:32:51.187Z,90.40
2022-12-03T06:35:20.205Z,90.10
2022-12-03T06:37:47.904Z,90.50
2022-12-03T06:40:16.745Z,90.10
2022-12-03T06:42:47.344Z,90.50
2022-12-03T06:45:15.067Z,90.20
2022-12-03T06:47:42.696Z,90.30
2022-12-03T06:50:10.617Z,90.20
2022-12-03T06:52:39.675Z,90.10
2022-12-03T06:55:07.829Z,89.70
2022-12-03T06:57:35.435Z,89.90
2022-12-03T07:00:03.425Z,89.50
2022-12-03T07:02:31.127Z,89.90
2022-12-03T07:04:58.940Z,89.60
2022-12-03T07:07:26.728Z,89.60
2022-12-03T07:09:55.816Z,89.40
2022-12-03T07:12:23.532Z,89.80
2022-12-03T07:14:54.273Z,89.60
2022-12-03T07:17:22.093Z,89.10
2022-12-03T07:19:49.803Z,89.50
2022-12-03T07:22:17.506Z,89.00
2022-12-03T07:24:45.181Z,89.50
2022-12-03T07:27:14.185Z,88.80
2022-12-03T07:29:41.980Z,89.60
2022-12-03T07:32:09.749Z,88.90
2022-12-03T07:34:37.550Z,89.20
2022-12-03T07:37:05.292Z,90.00
2022-12-03T07:39:34.905Z,89.50
2022-12-03T07:42:02.578Z,90.30
2022-12-03T07:44:32.293Z,90.00
2022-12-03T07:47:00.380Z,90.00
2022-12-03T07:49:28.130Z,90.20
2022-12-03T07:51:58.794Z,90.00
2022-12-03T07:54:27.230Z,90.40
2022-12-03T07:57:00.921Z,90.60
2022-12-03T07:59:29.643Z,90.20
2022-12-03T08:01:58.960Z,90.20
2022-12-03T08:04:26.763Z,90.00
2022-12-03T08:06:54.600Z,89.90
2022-12-03T08:09:22.664Z,88.60
2022-12-03T08:11:50.382Z,88.80
2022-12-03T08:14:18.719Z,88.30
2022-12-03T08:16:47.150Z,89.90
2022-12-03T08:19:17.179Z,89.10
2022-12-03T08:21:45.993Z,89.00
2022-12-03T08:24:14.863Z,89.20
2022-12-03T08:26:46.019Z,89.20
2022-12-03T08:29:17.436Z,87.90
2022-12-03T08:31:48.742Z,87.80
2022-12-03T08:34:19.086Z,90.00
2022-12-03T08:36:47.464Z,89.80
2022-12-03T08:39:29.046Z,88.90
2022-12-03T08:42:16.845Z,89.30
2022-12-03T08:44:44.514Z,89.10
2022-12-03T08:47:19.990Z,87.10
2022-12-03T08:49:53.651Z,88.80
2022-12-03T08:52:21.864Z,88.40
2022-12-03T08:54:52.705Z,88.10
2022-12-03T08:57:26.057Z,89.30
2022-12-03T08:59:54.872Z,88.40
2022-12-03T09:02:26.096Z,87.50
2022-12-03T09:04:55.557Z,88.40
2022-12-03T09:07:23.394Z,87.90
2022-12-03T09:09:51.061Z,87.20
2022-12-03T09:12:18.703Z,86.70
2022-12-03T09:14:46.301Z,86.50
2022-12-03T09:17:13.947Z,86.30
2022-12-03T09:19:46.053Z,86.20
2022-12-03T09:22:17.243Z,87.00
2022-12-03T09:24:44.929Z,86.70
2022-12-03T09:27:12.963Z,86.90
2022-12-03T09:29:40.581Z,86.50
2022-12-03T09:32:09.174Z,85.40
2022-12-03T09:34:39.048Z,84.20
2022-12-03T09:37:07.228Z,86.50
2022-12-03T09:39:36.244Z,85.60
2022-12-03T09:42:04.162Z,84.90
2022-12-03T09:44:33.465Z,85.80
2022-12-03T09:47:01.535Z,84.00
2022-12-03T09:49:29.779Z,85.40
2022-12-03T09:51:58.323Z,84.50
2022-12-03T09:54:27.664Z,84.20
2022-12-03T09:56:57.598Z,85.10
2022-12-03T09:59:27.169Z,84.70
2022-12-03T10:01:55.184Z,85.10
2022-12-03T10:04:22.886Z,84.30
2022-12-03T10:06:50.871Z,85.10
2022-12-03T10:09:23.179Z,84.60
2022-12-03T10:11:50.855Z,84.20
2022-12-03T10:14:20.654Z,82.80
2022-12-03T10:16:48.501Z,83.30
2022-12-03T10:19:19.633Z,82.20
2022-12-03T10:21:48.296Z,83.40
2022-12-03T10:24:21.009Z,83.50
2022-12-03T10:26:49.841Z,83.70
2022-12-03T10:29:19.636Z,83.60
2022-12-03T10:31:55.078Z,83.80
2022-12-03T10:34:26.617Z,83.40
2022-12-03T10:37:14.176Z,84.40
2022-12-03T10:39:56.682Z,84.30
2022-12-03T10:42:33.521Z,84.00
2022-12-03T10:45:14.305Z,83.40
2022-12-03T10:47:45.406Z,83.90
2022-12-03T10:50:17.432Z,82.70
2022-12-03T10:52:45.533Z,83.80
2022-12-03T10:55:14.240Z,83.60
2022-12-03T10:57:45.681Z,83.20
2022-12-03T11:00:17.826Z,82.10
2022-12-03T11:02:54.876Z,83.40
2022-12-03T11:05:28.645Z,83.20
2022-12-03T11:07:56.861Z,83.00
2022-12-03T11:10:24.974Z,83.60
2022-12-03T11:13:11.246Z,83.00
2022-12-03T11:15:43.710Z,83.60
2022-12-03T11:18:12.709Z,83.80
2022-12-03T11:20:59.667Z,83.80
2022-12-03T11:23:42.366Z,84.10
2022-12-03T11:26:17.097Z,83.60
2022-12-03T11:28:53.925Z,83.80
2022-12-03T11:31:35.609Z,83.20
2022-12-03T11:34:21.873Z,83.80
2022-12-03T11:37:04.915Z,84.10
2022-12-03T11:40:05.248Z,84.50
2022-12-03T11:42:40.625Z,84.00
2022-12-03T11:45:16.351Z,83.30
2022-12-03T11:47:46.479Z,83.20
2022-12-03T11:50:22.374Z,82.30
2022-12-03T11:53:00.653Z,83.90
2022-12-03T11:55:30.457Z,83.40
2022-12-03T11:58:00.450Z,84.20
2022-12-03T12:00:28.360Z,84.00
2022-12-03T12:02:57.046Z,84.20
2022-12-03T12:05:27.191Z,83.80
2022-12-03T12:07:55.859Z,83.80
2022-12-03T12:10:43.855Z,84.30
2022-12-03T12:13:26.425Z,84.10
2022-12-03T12:15:55.594Z,83.50
2022-12-03T12:18:40.018Z,83.60
2022-12-03T12:21:26.220Z,84.20
2022-12-03T12:23:53.921Z,84.30
2022-12-03T12:26:21.587Z,83.60
2022-12-03T12:28:49.205Z,83.50
2022-12-03T12:31:18.240Z,83.10
2022-12-03T12:34:00.738Z,83.80
2022-12-03T12:36:29.124Z,83.30
2022-12-03T12:38:56.978Z,83.00
2022-12-03T12:41:25.263Z,81.90
2022-12-03T12:46:55.940Z,83.60
2022-12-03T12:49:26.907Z,84.00
2022-12-03T12:51:54.967Z,85.10
2022-12-03T12:54:22.560Z,84.20
2022-12-03T12:56:50.891Z,83.60
2022-12-03T12:59:19.720Z,83.40
2022-12-03T13:01:48.094Z,84.30
2022-12-03T13:04:18.033Z,83.60
2022-12-03T13:06:46.084Z,84.00
2022-12-03T13:09:15.715Z,84.60
2022-12-03T13:11:45.755Z,84.30
2022-12-03T13:14:15.786Z,84.00
2022-12-03T13:16:43.602Z,84.30
2022-12-03T13:19:17.679Z,83.30
2022-12-03T13:21:46.724Z,84.00
2022-12-03T13:24:29.943Z,83.50
2022-12-03T13:26:58.111Z,84.50
2022-12-03T13:29:26.692Z,84.40
2022-12-03T13:31:55.750Z,83.30
2022-12-03T13:34:24.432Z,83.50
2022-12-03T13:36:58.012Z,84.30
2022-12-03T13:39:31.769Z,83.80
2022-12-03T13:42:19.500Z,83.90
2022-12-03T13:44:48.001Z,83.90
2022-12-03T13:47:19.961Z,84.80
2022-12-03T13:49:50.621Z,83.30
2022-12-03T13:52:23.391Z,83.40
2022-12-03T13:54:52.898Z,84.00
2022-12-03T13:57:36.727Z,83.10
2022-12-03T14:00:28.464Z,82.70
2022-12-03T14:03:00.316Z,83.20
2022-12-03T14:05:28.215Z,82.50
2022-12-03T14:07:58.448Z,82.50
2022-12-03T14:10:26.254Z,83.70
2022-12-03T14:12:53.975Z,82.80
2022-12-03T14:15:22.476Z,84.00
2022-12-03T14:17:50.250Z,83.40
2022-12-03T14:20:18.938Z,82.90
2022-12-03T14:22:46.672Z,83.50
2022-12-03T14:25:15.843Z,83.50
2022-12-03T14:27:43.532Z,83.50
2022-12-03T14:30:11.775Z,83.30
2022-12-03T14:32:39.465Z,84.10
2022-12-03T14:35:10.094Z,83.80
2022-12-03T14:37:38.059Z,84.70
2022-12-03T14:40:08.804Z,84.20
2022-12-03T14:42:38.045Z,85.00
2022-12-03T14:45:06.615Z,85.50
2022-12-03T14:47:34.441Z,85.00
2022-12-03T14:50:02.348Z,84.60
2022-12-03T14:52:30.025Z,85.20
2022-12-03T14:54:57.787Z,84.90
2022-12-03T14:57:25.553Z,84.20
2022-12-03T14:59:54.815Z,84.40
2022-12-03T15:02:22.923Z,85.50
2022-12-03T15:04:50.667Z,85.10
2022-12-03T15:07:18.280Z,84.90
2022-12-03T15:09:45.986Z,85.30
2022-12-03T15:12:13.602Z,85.40
2022-12-03T15:14:41.282Z,84.80
2022-12-03T15:17:10.757Z,85.10
2022-12-03T15:19:38.677Z,85.70
2022-12-03T15:22:07.360Z,85.80
2022-12-03T15:24:35.349Z,86.40
2022-12-03T15:27:03.081Z,85.50
2022-12-03T15:29:30.746Z,85.90
2022-12-03T15:31:59.325Z,85.80
2022-12-03T15:34:28.571Z,85.80
2022-12-03T15:36:56.227Z,87.10
2022-12-03T15:39:24.070Z,86.50
2022-12-03T15:41:51.722Z,86.30
2022-12-03T15:44:19.490Z,86.60
2022-12-03T15:46:47.709Z,86.30
2022-12-03T15:49:15.444Z,85.80
2022-12-03T15:51:44.444Z,86.00
2022-12-03T15:54:12.368Z,86.30
2022-12-03T15:56:40.352Z,85.90
2022-12-03T15:59:08.065Z,84.90
2022-12-03T16:01:35.946Z,85.70
2022-12-03T16:04:03.726Z,84.80
2022-12-03T16:06:31.353Z,85.70
2022-12-03T16:09:00.346Z,85.60
2022-12-03T16:11:27.923Z,86.50
2022-12-03T16:13:55.615Z,85.90
2022-12-03T16:16:23.328Z,85.60
2022-12-03T16:18:51.235Z,86.20
2022-12-03T16:21:22.023Z,86.40
2022-12-03T16:23:53.982Z,86.20
2022-12-03T16:26:23.332Z,86.60
2022-12-03T16:29:17.586Z,87.00
2022-12-03T16:32:01.323Z,86.60
2022-12-03T16:34:28.940Z,86.40
2022-12-03T16:36:56.806Z,86.80
2022-12-03T16:39:24.677Z,86.80
2022-12-03T16:41:53.831Z,86.60
2022-12-03T16:44:32.144Z,87.20
2022-12-03T16:47:00.331Z,87.20
2022-12-03T16:49:28.124Z,87.50
2022-12-03T16:51:55.925Z,87.10
2022-12-03T16:54:23.593Z,86.80
2022-12-03T16:56:51.322Z,86.90
2022-12-03T16:59:20.560Z,86.60
2022-12-03T17:01:48.370Z,87.00
2022-12-03T17:04:16.137Z,86.80
2022-12-03T17:06:43.846Z,86.80
2022-12-03T17:09:11.480Z,86.30
2022-12-03T17:11:39.129Z,86.90
2022-12-03T17:14:06.769Z,87.50
2022-12-03T17:16:35.895Z,87.60
2022-12-03T17:19:03.701Z,87.40
2022-12-03T17:21:34.914Z,87.00
2022-12-03T17:24:03.017Z,87.40
2022-12-03T17:26:30.777Z,87.10
2022-12-03T17:28:58.481Z,87.70
2022-12-03T17:31:26.142Z,87.60
2022-12-03T17:33:57.387Z,87.80
2022-12-03T17:36:25.253Z,88.00
2022-12-03T17:38:53.225Z,87.30
2022-12-03T17:41:20.899Z,88.30
2022-12-03T17:43:48.568Z,87.50
2022-12-03T17:46:16.270Z,86.80
2022-12-03T17:48:44.000Z,87.60
2022-12-03T17:51:13.109Z,87.40
2022-12-03T17:53:40.913Z,88.20
2022-12-03T17:56:08.614Z,86.60
2022-12-03T17:58:36.391Z,87.20
2022-12-03T18:01:05.633Z,87.60
2022-12-03T18:03:34.367Z,87.70
2022-12-03T18:06:02.048Z,88.10
2022-12-03T18:08:31.366Z,87.40
2022-12-03T18:10:58.992Z,87.60
2022-12-03T18:13:26.716Z,87.40
2022-12-03T18:15:54.459Z,87.00
2022-12-03T18:18:22.166Z,87.10
2022-12-03T18:20:49.925Z,86.30
2022-12-03T18:23:17.608Z,85.70
2022-12-03T18:25:46.625Z,86.60
2022-12-03T18:28:14.239Z,86.10
2022-12-03T18:30:44.042Z,85.80
2022-12-03T18:33:15.504Z,85.70
2022-12-03T18:35:43.534Z,85.80
2022-12-03T18:38:12.082Z,86.40
2022-12-03T18:40:41.031Z,87.00
2022-12-03T18:43:13.418Z,87.10
2022-12-03T18:45:41.443Z,87.70
2022-12-03T18:48:11.906Z,86.40
2022-12-03T18:50:39.985Z,87.50
2022-12-03T18:53:07.957Z,85.90
2022-12-03T18:55:36.233Z,87.60
2022-12-03T18:58:03.863Z,88.00
2022-12-03T19:00:33.185Z,88.00
2022-12-03T19:03:03.920Z,87.20
2022-12-03T19:05:33.050Z,87.30
2022-12-03T19:08:01.019Z,87.20
2022-12-03T19:10:29.163Z,86.50
2022-12-03T19:12:56.823Z,86.80
2022-12-03T19:15:24.510Z,86.70
2022-12-03T19:17:53.672Z,86.20
2022-12-03T19:20:21.368Z,86.50
2022-12-03T19:22:49.189Z,85.50
2022-12-03T19:25:17.063Z,85.40
2022-12-03T19:27:44.777Z,86.20
2022-12-03T19:30:12.947Z,85.30
2022-12-03T19:32:40.760Z,86.10
2022-12-03T19:35:12.269Z,84.90
2022-12-03T19:37:40.349Z,85.90
2022-12-03T19:40:10.173Z,84.60
2022-12-03T19:42:37.922Z,85.30
2022-12-03T19:45:06.008Z,84.60
2022-12-03T19:47:35.351Z,85.30
2022-12-03T19:50:05.770Z,85.70
2022-12-03T19:52:37.419Z,86.00
2022-12-03T19:55:06.152Z,85.80
2022-12-03T19:57:34.136Z,85.30
2022-12-03T20:00:01.891Z,84.30
2022-12-03T20:02:29.830Z,85.00
2022-12-03T20:04:58.693Z,84.80
2022-12-03T20:07:26.488Z,86.10
2022-12-03T20:09:55.963Z,85.10
2022-12-03T20:12:23.834Z,86.30
2022-12-03T20:14:51.731Z,85.80
2022-12-03T20:17:19.848Z,85.40
2022-12-03T20:19:47.738Z,83.90
2022-12-03T20:22:15.536Z,83.30
2022-12-03T20:24:43.424Z,82.70
2022-12-03T20:27:12.762Z,82.70
2022-12-03T20:29:44.246Z,84.10
2022-12-03T20:32:14.165Z,83.70
2022-12-03T20:34:41.834Z,85.00
2022-12-03T20:37:09.522Z,84.10
2022-12-03T20:39:37.364Z,84.50
2022-12-03T20:42:05.105Z,82.90
2022-12-03T20:44:34.245Z,83.20
2022-12-03T20:47:01.860Z,84.10
2022-12-03T20:49:29.718Z,83.50
2022-12-03T20:52:01.159Z,83.90
2022-12-03T20:54:31.847Z,83.80
2022-12-03T20:57:04.778Z,84.60
2022-12-03T20:59:35.019Z,84.80
2022-12-03T21:02:02.856Z,85.30
2022-12-03T21:04:30.702Z,83.80
2022-12-03T21:06:58.463Z,84.40
2022-12-03T21:09:26.166Z,84.50
2022-12-03T21:11:54.089Z,83.90
2022-12-03T21:14:21.906Z,83.60
2022-12-03T21:17:09.366Z,84.20
2022-12-03T21:19:37.726Z,84.90
2022-12-03T21:22:06.797Z,85.30
2022-12-03T21:24:34.807Z,85.90
2022-12-03T21:27:04.157Z,84.50
2022-12-03T21:29:31.917Z,84.50
2022-12-03T21:32:04.901Z,85.00
2022-12-03T21:34:36.044Z,84.60
2022-12-03T21:37:04.509Z,84.00
2022-12-03T21:39:32.419Z,84.00
2022-12-03T21:42:34.777Z,84.10
2022-12-03T21:44:56.874Z,84.20
2022-12-03T21:47:26.202Z,83.70
2022-12-03T21:49:54.328Z,83.90
2022-12-03T21:52:22.274Z,83.40
2022-12-03T21:54:52.634Z,82.80
2022-12-03T21:57:20.408Z,84.80
2022-12-03T21:59:48.253Z,83.80
2022-12-03T22:02:16.341Z,83.30
2022-12-03T22:04:49.811Z,81.70
2022-12-03T22:07:17.639Z,83.20
2022-12-03T22:09:45.295Z,82.70
2022-12-03T22:12:13.011Z,82.90
2022-12-03T22:14:41.119Z,82.10
2022-12-03T22:17:10.241Z,83.30
2022-12-03T22:19:39.645Z,83.20
2022-12-03T22:22:11.160Z,83.20
2022-12-03T22:24:39.776Z,84.50
2022-12-03T22:27:07.425Z,83.90
2022-12-03T22:29:35.032Z,84.30
2022-12-03T22:32:02.682Z,84.70
2022-12-03T22:34:30.293Z,84.70
2022-12-03T22:36:58.124Z,84.70
2022-12-03T22:39:27.111Z,84.00
2022-12-03T22:41:54.874Z,84.70
2022-12-03T22:44:24.706Z,83.50
2022-12-03T22:46:52.499Z,85.00
2022-12-03T22:49:20.387Z,83.80
2022-12-03T22:51:48.377Z,85.10
2022-12-03T22:54:20.894Z,85.10
2022-12-03T22:56:53.002Z,86.20
2022-12-03T22:59:20.700Z,85.80
2022-12-03T23:01:48.403Z,86.20
2022-12-03T23:04:16.257Z,85.90
2022-12-03T23:06:44.684Z,86.30
2022-12-03T23:09:14.590Z,86.00
2022-12-03T23:11:43.851Z,86.20
2022-12-03T23:14:14.108Z,86.30
2022-12-03T23:16:42.893Z,86.00
2022-12-03T23:19:10.575Z,85.90
2022-12-03T23:21:38.172Z,85.50
2022-12-03T23:24:06.398Z,85.30
2022-12-03T23:26:34.775Z,85.80
2022-12-03T23:29:02.396Z,85.50
2022-12-03T23:31:32.781Z,84.80
2022-12-03T23:34:00.841Z,86.00
2022-12-03T23:36:29.543Z,85.10
2022-12-03T23:38:57.308Z,86.00
2022-12-03T23:41:25.047Z,85.00
2022-12-03T23:43:52.780Z,85.20
2022-12-03T23:46:21.230Z,84.80
2022-12-03T23:48:50.308Z,85.70
2022-12-03T23:51:19.171Z,86.10
2022-12-03T23:53:47.144Z,86.10
2022-12-03T23:56:16.737Z,86.30
2022-12-03T23:58:44.720Z,87.00
